sensor_id;sensor_type;location;lat;lon;timestamp;temperature;humidity
8541;DHT22;4308;51.294;6.590;2024-02-14T07:04:02;9.40;99.90
8541;DHT22;4308;51.294;6.590;2024-02-14T07:06:30;9.60;99.90
8541;DHT22;4308;51.294;6.590;2024-02-14T07:08:58;9.70;99.90
8541;DHT22;4308;51.294;6.590;2024-02-14T07:11:25;9.80;99.90
8541;DHT22;4308;51.294;6.590;2024-02-14T07:13:52;9.90;99.90
8541;DHT22;4308;51.294;6.590;2024-02-14T07:16:20;10.00;99.90
8541;DHT22;4308;51.294;6.590;2024-02-14T07:18:47;10.00;99.90
8541;DHT22;4308;51.294;6.590;2024-02-14T07:21:15;10.10;99.90
8541;DHT22;4308;51.294;6.590;2024-02-14T07:23:42;10.20;99.90
8541;DHT22;4308;51.294;6.590;2024-02-14T07:26:09;10.20;99.90
8541;DHT22;4308;51.294;6.590;2024-02-14T07:28:37;10.30;99.90
8541;DHT22;4308;51.294;6.590;2024-02-14T07:31:04;10.40;99.90
8541;DHT22;4308;51.294;6.590;2024-02-14T07:33:31;10.40;99.90
8541;DHT22;4308;51.294;6.590;2024-02-14T07:35:59;10.40;99.90
8541;DHT22;4308;51.294;6.590;2024-02-14T07:38:27;10.50;99.90
8541;DHT22;4308;51.294;6.590;2024-02-14T07:40:54;10.50;99.90
8541;DHT22;4308;51.294;6.590;2024-02-14T07:43:21;11.30;99.90
8541;DHT22;4308;51.294;6.590;2024-02-14T07:45:49;10.80;99.90
8541;DHT22;4308;51.294;6.590;2024-02-14T07:48:19;10.70;99.90
8541;DHT22;4308;51.294;6.590;2024-02-14T07:50:46;10.70;99.90
8541;DHT22;4308;51.294;6.590;2024-02-14T07:53:14;10.70;99.90
8541;DHT22;4308;51.294;6.590;2024-02-14T07:55:41;10.80;99.90
8541;DHT22;4308;51.294;6.590;2024-02-14T07:58:08;10.90;99.90
8541;DHT22;4308;51.294;6.590;2024-02-14T08:00:38;10.90;99.90
8541;DHT22;4308;51.294;6.590;2024-02-14T08:03:05;10.90;99.90
8541;DHT22;4308;51.294;6.590;2024-02-14T08:05:35;11.00;99.90
8541;DHT22;4308;51.294;6.590;2024-02-14T08:08:03;11.00;99.90
8541;DHT22;4308;51.294;6.590;2024-02-14T08:10:30;10.90;99.90
8541;DHT22;4308;51.294;6.590;2024-02-14T08:12:58;11.00;99.90
8541;DHT22;4308;51.294;6.590;2024-02-14T08:15:25;11.10;99.90
8541;DHT22;4308;51.294;6.590;2024-02-14T08:17:53;11.10;99.90
8541;DHT22;4308;51.294;6.590;2024-02-14T08:20:24;11.10;99.90
8541;DHT22;4308;51.294;6.590;2024-02-14T08:22:52;11.20;99.90
8541;DHT22;4308;51.294;6.590;2024-02-14T08:25:19;11.20;99.90
8541;DHT22;4308;51.294;6.590;2024-02-14T08:27:46;11.30;99.90
8541;DHT22;4308;51.294;6.590;2024-02-14T08:30:14;11.30;99.90
8541;DHT22;4308;51.294;6.590;2024-02-14T08:32:41;11.40;99.90
8541;DHT22;4308;51.294;6.590;2024-02-14T08:35:09;11.40;99.90
8541;DHT22;4308;51.294;6.590;2024-02-14T08:37:37;11.50;99.90
8541;DHT22;4308;51.294;6.590;2024-02-14T08:40:04;11.70;99.90
8541;DHT22;4308;51.294;6.590;2024-02-14T08:42:33;11.80;99.90
8541;DHT22;4308;51.294;6.590;2024-02-14T08:45:01;11.80;99.90
8541;DHT22;4308;51.294;6.590;2024-02-14T08:47:29;11.80;99.90
8541;DHT22;4308;51.294;6.590;2024-02-14T08:49:56;11.80;99.90
8541;DHT22;4308;51.294;6.590;2024-02-14T08:52:23;11.80;99.90
8541;DHT22;4308;51.294;6.590;2024-02-14T08:54:51;11.90;99.90
8541;DHT22;4308;51.294;6.590;2024-02-14T08:57:19;11.90;99.90
8541;DHT22;4308;51.294;6.590;2024-02-14T08:59:46;11.90;99.90
8541;DHT22;4308;51.294;6.590;2024-02-14T09:02:14;12.10;99.90
8541;DHT22;4308;51.294;6.590;2024-02-14T09:04:42;12.10;99.90
8541;DHT22;4308;51.294;6.590;2024-02-14T09:07:09;12.20;99.90
8541;DHT22;4308;51.294;6.590;2024-02-14T09:09:37;12.10;99.90
8541;DHT22;4308;51.294;6.590;2024-02-14T09:12:06;12.20;99.90
8541;DHT22;4308;51.294;6.590;2024-02-14T09:14:34;12.10;99.90
8541;DHT22;4308;51.294;6.590;2024-02-14T09:17:01;12.20;99.90
8541;DHT22;4308;51.294;6.590;2024-02-14T09:19:28;12.20;99.90
8541;DHT22;4308;51.294;6.590;2024-02-14T09:21:56;12.30;99.90
8541;DHT22;4308;51.294;6.590;2024-02-14T09:24:23;12.30;99.90
8541;DHT22;4308;51.294;6.590;2024-02-14T09:26:51;12.50;99.90
8541;DHT22;4308;51.294;6.590;2024-02-14T09:29:18;12.50;99.90
8541;DHT22;4308;51.294;6.590;2024-02-14T09:31:45;12.50;99.90
8541;DHT22;4308;51.294;6.590;2024-02-14T09:34:13;12.60;99.90
8541;DHT22;4308;51.294;6.590;2024-02-14T09:36:41;12.70;99.90
8541;DHT22;4308;51.294;6.590;2024-02-14T09:39:08;12.80;99.90
8541;DHT22;4308;51.294;6.590;2024-02-14T09:41:37;13.40;99.90
8541;DHT22;4308;51.294;6.590;2024-02-14T09:44:08;12.80;99.90
8541;DHT22;4308;51.294;6.590;2024-02-14T09:46:38;12.80;99.90
8541;DHT22;4308;51.294;6.590;2024-02-14T09:49:06;12.80;99.90
8541;DHT22;4308;51.294;6.590;2024-02-14T09:51:35;12.80;99.90
8541;DHT22;4308;51.294;6.590;2024-02-14T09:54:03;12.70;99.90
8541;DHT22;4308;51.294;6.590;2024-02-14T09:56:31;12.70;99.90
8541;DHT22;4308;51.294;6.590;2024-02-14T09:58:59;12.70;99.90
8541;DHT22;4308;51.294;6.590;2024-02-14T10:01:27;12.80;99.90
8541;DHT22;4308;51.294;6.590;2024-02-14T10:03:55;12.80;99.90
8541;DHT22;4308;51.294;6.590;2024-02-14T10:06:22;13.00;99.90
8541;DHT22;4308;51.294;6.590;2024-02-14T10:08:50;12.90;99.90
8541;DHT22;4308;51.294;6.590;2024-02-14T10:11:32;12.80;99.90
8541;DHT22;4308;51.294;6.590;2024-02-14T10:14:00;12.80;99.90
8541;DHT22;4308;51.294;6.590;2024-02-14T10:16:28;12.90;99.90
8541;DHT22;4308;51.294;6.590;2024-02-14T10:18:56;12.90;99.90
8541;DHT22;4308;51.294;6.590;2024-02-14T10:21:23;12.90;99.90
8541;DHT22;4308;51.294;6.590;2024-02-14T10:23:50;13.00;99.90
8541;DHT22;4308;51.294;6.590;2024-02-14T10:26:18;13.00;99.90
8541;DHT22;4308;51.294;6.590;2024-02-14T10:28:46;12.90;99.90
8541;DHT22;4308;51.294;6.590;2024-02-14T10:31:16;13.00;99.90
8541;DHT22;4308;51.294;6.590;2024-02-14T10:33:44;13.00;99.90
8541;DHT22;4308;51.294;6.590;2024-02-14T10:36:12;13.00;99.90
8541;DHT22;4308;51.294;6.590;2024-02-14T10:38:40;13.20;99.90
8541;DHT22;4308;51.294;6.590;2024-02-14T10:41:09;13.30;99.90
8541;DHT22;4308;51.294;6.590;2024-02-14T10:43:40;13.40;99.90
8541;DHT22;4308;51.294;6.590;2024-02-14T10:46:10;13.50;99.90
8541;DHT22;4308;51.294;6.590;2024-02-14T10:48:39;13.60;99.90
8541;DHT22;4308;51.294;6.590;2024-02-14T10:51:08;13.80;99.90
8541;DHT22;4308;51.294;6.590;2024-02-14T10:53:39;13.80;99.90
8541;DHT22;4308;51.294;6.590;2024-02-14T10:56:08;13.80;99.90
8541;DHT22;4308;51.294;6.590;2024-02-14T10:58:35;13.80;99.90
8541;DHT22;4308;51.294;6.590;2024-02-14T11:01:04;13.90;99.90
8541;DHT22;4308;51.294;6.590;2024-02-14T11:03:31;13.90;99.90
8541;DHT22;4308;51.294;6.590;2024-02-14T11:06:02;13.90;99.90
8541;DHT22;4308;51.294;6.590;2024-02-14T11:08:30;13.90;99.90
8541;DHT22;4308;51.294;6.590;2024-02-14T11:10:59;13.80;99.90
8541;DHT22;4308;51.294;6.590;2024-02-14T11:13:27;13.70;99.90
8541;DHT22;4308;51.294;6.590;2024-02-14T11:15:57;13.80;99.90
8541;DHT22;4308;51.294;6.590;2024-02-14T11:18:25;13.80;99.90
8541;DHT22;4308;51.294;6.590;2024-02-14T11:20:53;13.90;99.90
8541;DHT22;4308;51.294;6.590;2024-02-14T11:23:22;14.10;99.90
8541;DHT22;4308;51.294;6.590;2024-02-14T11:25:49;14.30;99.90
8541;DHT22;4308;51.294;6.590;2024-02-14T11:28:18;14.40;99.90
8541;DHT22;4308;51.294;6.590;2024-02-14T11:30:46;14.40;99.90
8541;DHT22;4308;51.294;6.590;2024-02-14T11:33:22;14.40;99.90
8541;DHT22;4308;51.294;6.590;2024-02-14T11:35:51;14.50;99.90
8541;DHT22;4308;51.294;6.590;2024-02-14T11:38:20;14.60;99.90
8541;DHT22;4308;51.294;6.590;2024-02-14T11:40:47;14.60;99.90
8541;DHT22;4308;51.294;6.590;2024-02-14T11:43:18;14.60;99.90
8541;DHT22;4308;51.294;6.590;2024-02-14T11:45:46;14.60;99.90
8541;DHT22;4308;51.294;6.590;2024-02-14T11:48:14;14.50;99.90
8541;DHT22;4308;51.294;6.590;2024-02-14T11:50:45;14.50;99.90
8541;DHT22;4308;51.294;6.590;2024-02-14T11:53:14;14.50;99.90
8541;DHT22;4308;51.294;6.590;2024-02-14T11:55:41;14.40;99.90
8541;DHT22;4308;51.294;6.590;2024-02-14T11:58:10;14.30;99.90
8541;DHT22;4308;51.294;6.590;2024-02-14T12:00:41;14.20;99.90
8541;DHT22;4308;51.294;6.590;2024-02-14T12:03:15;14.20;99.90
8541;DHT22;4308;51.294;6.590;2024-02-14T12:05:45;14.00;99.90
8541;DHT22;4308;51.294;6.590;2024-02-14T12:08:13;14.10;99.90
8541;DHT22;4308;51.294;6.590;2024-02-14T12:10:44;14.10;99.90
8541;DHT22;4308;51.294;6.590;2024-02-14T12:13:12;14.10;99.90
8541;DHT22;4308;51.294;6.590;2024-02-14T12:15:42;14.10;99.90
8541;DHT22;4308;51.294;6.590;2024-02-14T12:18:11;14.20;99.90
8541;DHT22;4308;51.294;6.590;2024-02-14T12:20:39;14.10;99.90
8541;DHT22;4308;51.294;6.590;2024-02-14T12:23:07;14.10;99.90
8541;DHT22;4308;51.294;6.590;2024-02-14T12:25:34;14.10;99.90
8541;DHT22;4308;51.294;6.590;2024-02-14T12:28:01;14.00;99.90
8541;DHT22;4308;51.294;6.590;2024-02-14T12:30:46;13.90;99.90
8541;DHT22;4308;51.294;6.590;2024-02-14T12:33:14;13.90;99.90
8541;DHT22;4308;51.294;6.590;2024-02-14T12:35:43;13.90;99.90
8541;DHT22;4308;51.294;6.590;2024-02-14T12:38:12;13.90;99.90
8541;DHT22;4308;51.294;6.590;2024-02-14T12:40:40;14.00;99.90
8541;DHT22;4308;51.294;6.590;2024-02-14T12:43:09;14.00;99.90
8541;DHT22;4308;51.294;6.590;2024-02-14T12:45:37;14.00;99.90
8541;DHT22;4308;51.294;6.590;2024-02-14T12:48:08;14.10;99.90
8541;DHT22;4308;51.294;6.590;2024-02-14T12:50:36;14.20;99.90
8541;DHT22;4308;51.294;6.590;2024-02-14T12:53:05;14.20;99.90
8541;DHT22;4308;51.294;6.590;2024-02-14T12:55:32;14.30;99.90
8541;DHT22;4308;51.294;6.590;2024-02-14T12:58:02;14.30;99.90
8541;DHT22;4308;51.294;6.590;2024-02-14T13:00:30;14.40;99.90
8541;DHT22;4308;51.294;6.590;2024-02-14T13:02:57;14.40;99.90
8541;DHT22;4308;51.294;6.590;2024-02-14T13:05:25;14.40;99.90
8541;DHT22;4308;51.294;6.590;2024-02-14T13:07:52;14.40;99.90
8541;DHT22;4308;51.294;6.590;2024-02-14T13:10:19;14.40;99.90
8541;DHT22;4308;51.294;6.590;2024-02-14T13:12:47;14.20;99.90
8541;DHT22;4308;51.294;6.590;2024-02-14T13:15:14;14.30;99.90
8541;DHT22;4308;51.294;6.590;2024-02-14T13:17:41;14.30;99.90
8541;DHT22;4308;51.294;6.590;2024-02-14T13:20:09;14.30;99.90
8541;DHT22;4308;51.294;6.590;2024-02-14T13:22:37;14.30;99.90
8541;DHT22;4308;51.294;6.590;2024-02-14T13:25:05;14.30;99.90
8541;DHT22;4308;51.294;6.590;2024-02-14T13:27:32;14.30;99.90
8541;DHT22;4308;51.294;6.590;2024-02-14T13:30:00;14.20;99.90
8541;DHT22;4308;51.294;6.590;2024-02-14T13:32:27;14.00;99.90
8541;DHT22;4308;51.294;6.590;2024-02-14T13:34:55;14.00;99.90
8541;DHT22;4308;51.294;6.590;2024-02-14T13:37:22;13.90;99.90
8541;DHT22;4308;51.294;6.590;2024-02-14T13:39:50;13.90;99.90
8541;DHT22;4308;51.294;6.590;2024-02-14T13:42:17;13.80;99.90
8541;DHT22;4308;51.294;6.590;2024-02-14T13:44:44;13.80;99.90
8541;DHT22;4308;51.294;6.590;2024-02-14T13:47:12;13.80;99.90
8541;DHT22;4308;51.294;6.590;2024-02-14T13:49:39;13.80;99.90
8541;DHT22;4308;51.294;6.590;2024-02-14T13:52:07;13.80;99.90
8541;DHT22;4308;51.294;6.590;2024-02-14T13:54:34;13.70;99.90
8541;DHT22;4308;51.294;6.590;2024-02-14T13:57:01;13.70;99.90
8541;DHT22;4308;51.294;6.590;2024-02-14T13:59:29;13.60;99.90
8541;DHT22;4308;51.294;6.590;2024-02-14T14:01:56;13.60;99.90
8541;DHT22;4308;51.294;6.590;2024-02-14T14:04:23;13.50;99.90
8541;DHT22;4308;51.294;6.590;2024-02-14T14:06:51;13.50;99.90
8541;DHT22;4308;51.294;6.590;2024-02-14T14:09:18;13.40;99.90
8541;DHT22;4308;51.294;6.590;2024-02-14T14:11:49;13.30;99.90
8541;DHT22;4308;51.294;6.590;2024-02-14T14:14:17;13.30;99.90
8541;DHT22;4308;51.294;6.590;2024-02-14T14:16:44;13.20;99.90
8541;DHT22;4308;51.294;6.590;2024-02-14T14:19:11;13.20;99.90
8541;DHT22;4308;51.294;6.590;2024-02-14T14:21:39;13.10;99.90
8541;DHT22;4308;51.294;6.590;2024-02-14T14:24:06;13.00;99.90
8541;DHT22;4308;51.294;6.590;2024-02-14T14:26:34;13.00;99.90
8541;DHT22;4308;51.294;6.590;2024-02-14T14:29:02;12.90;99.90
8541;DHT22;4308;51.294;6.590;2024-02-14T14:31:29;12.90;99.90
8541;DHT22;4308;51.294;6.590;2024-02-14T14:33:59;12.80;99.90
8541;DHT22;4308;51.294;6.590;2024-02-14T14:36:27;12.80;99.90
8541;DHT22;4308;51.294;6.590;2024-02-14T14:38:56;12.80;99.90
8541;DHT22;4308;51.294;6.590;2024-02-14T14:41:23;12.70;99.90
8541;DHT22;4308;51.294;6.590;2024-02-14T14:43:51;12.70;99.90
8541;DHT22;4308;51.294;6.590;2024-02-14T14:46:18;12.70;99.90
8541;DHT22;4308;51.294;6.590;2024-02-14T14:48:48;12.70;99.90
8541;DHT22;4308;51.294;6.590;2024-02-14T14:51:15;12.70;99.90
8541;DHT22;4308;51.294;6.590;2024-02-14T14:53:43;12.60;99.90
8541;DHT22;4308;51.294;6.590;2024-02-14T14:56:10;12.60;99.90
8541;DHT22;4308;51.294;6.590;2024-02-14T14:58:38;12.60;99.90
8541;DHT22;4308;51.294;6.590;2024-02-14T15:01:05;12.70;99.90
8541;DHT22;4308;51.294;6.590;2024-02-14T15:03:32;12.70;99.90
8541;DHT22;4308;51.294;6.590;2024-02-14T15:06:00;12.70;99.90
8541;DHT22;4308;51.294;6.590;2024-02-14T15:08:28;12.70;99.90
8541;DHT22;4308;51.294;6.590;2024-02-14T15:10:56;12.70;99.90
8541;DHT22;4308;51.294;6.590;2024-02-14T15:13:24;12.70;99.90
8541;DHT22;4308;51.294;6.590;2024-02-14T15:15:52;12.70;99.90
8541;DHT22;4308;51.294;6.590;2024-02-14T15:18:20;12.70;99.90
8541;DHT22;4308;51.294;6.590;2024-02-14T15:20:47;12.70;99.90
8541;DHT22;4308;51.294;6.590;2024-02-14T15:23:15;12.70;99.90
8541;DHT22;4308;51.294;6.590;2024-02-14T15:25:42;12.70;99.90
8541;DHT22;4308;51.294;6.590;2024-02-14T15:28:10;12.70;99.90
8541;DHT22;4308;51.294;6.590;2024-02-14T15:30:38;12.70;99.90
8541;DHT22;4308;51.294;6.590;2024-02-14T15:33:05;12.70;99.90
8541;DHT22;4308;51.294;6.590;2024-02-14T15:35:32;12.70;99.90
8541;DHT22;4308;51.294;6.590;2024-02-14T15:38:00;12.70;99.90
8541;DHT22;4308;51.294;6.590;2024-02-14T15:40:27;12.70;99.90
8541;DHT22;4308;51.294;6.590;2024-02-14T15:42:55;12.70;99.90
8541;DHT22;4308;51.294;6.590;2024-02-14T15:45:22;12.70;99.90
8541;DHT22;4308;51.294;6.590;2024-02-14T15:47:49;12.70;99.90
8541;DHT22;4308;51.294;6.590;2024-02-14T15:50:17;12.70;99.90
8541;DHT22;4308;51.294;6.590;2024-02-14T15:52:44;12.60;99.90
8541;DHT22;4308;51.294;6.590;2024-02-14T15:55:11;12.60;99.90
8541;DHT22;4308;51.294;6.590;2024-02-14T15:57:40;12.50;99.90
8541;DHT22;4308;51.294;6.590;2024-02-14T16:00:07;12.60;99.90
8541;DHT22;4308;51.294;6.590;2024-02-14T16:02:34;12.50;99.90
8541;DHT22;4308;51.294;6.590;2024-02-14T16:05:02;12.50;99.90
8541;DHT22;4308;51.294;6.590;2024-02-14T16:07:29;12.50;99.90
8541;DHT22;4308;51.294;6.590;2024-02-14T16:09:57;12.50;99.90
8541;DHT22;4308;51.294;6.590;2024-02-14T16:12:24;12.50;99.90
8541;DHT22;4308;51.294;6.590;2024-02-14T16:14:51;12.40;99.90
8541;DHT22;4308;51.294;6.590;2024-02-14T16:17:19;12.40;99.90
8541;DHT22;4308;51.294;6.590;2024-02-14T16:19:46;12.40;99.90
8541;DHT22;4308;51.294;6.590;2024-02-14T16:22:14;12.40;99.90
8541;DHT22;4308;51.294;6.590;2024-02-14T16:24:43;12.40;99.90
8541;DHT22;4308;51.294;6.590;2024-02-14T16:27:11;12.40;99.90
8541;DHT22;4308;51.294;6.590;2024-02-14T16:29:38;12.40;99.90
8541;DHT22;4308;51.294;6.590;2024-02-14T16:32:06;12.40;99.90
8541;DHT22;4308;51.294;6.590;2024-02-14T16:34:33;12.40;99.90
8541;DHT22;4308;51.294;6.590;2024-02-14T16:37:02;12.40;99.90
8541;DHT22;4308;51.294;6.590;2024-02-14T16:39:29;12.40;99.90
8541;DHT22;4308;51.294;6.590;2024-02-14T16:42:09;12.40;99.90
8541;DHT22;4308;51.294;6.590;2024-02-14T16:44:37;12.40;99.90
8541;DHT22;4308;51.294;6.590;2024-02-14T16:47:04;12.40;99.90
8541;DHT22;4308;51.294;6.590;2024-02-14T16:49:32;12.40;99.90
8541;DHT22;4308;51.294;6.590;2024-02-14T16:52:00;12.50;99.90
8541;DHT22;4308;51.294;6.590;2024-02-14T16:54:27;12.40;99.90
8541;DHT22;4308;51.294;6.590;2024-02-14T16:56:55;12.50;99.90
8541;DHT22;4308;51.294;6.590;2024-02-14T16:59:22;12.50;99.90
8541;DHT22;4308;51.294;6.590;2024-02-14T17:01:50;12.40;99.90
8541;DHT22;4308;51.294;6.590;2024-02-14T17:04:17;12.50;99.90
8541;DHT22;4308;51.294;6.590;2024-02-14T17:06:44;12.50;99.90
8541;DHT22;4308;51.294;6.590;2024-02-14T17:09:12;12.50;99.90
8541;DHT22;4308;51.294;6.590;2024-02-14T17:11:39;12.60;99.90
8541;DHT22;4308;51.294;6.590;2024-02-14T17:14:07;12.60;99.90
8541;DHT22;4308;51.294;6.590;2024-02-14T17:16:34;12.60;99.90
8541;DHT22;4308;51.294;6.590;2024-02-14T17:19:01;12.50;99.90
8541;DHT22;4308;51.294;6.590;2024-02-14T17:21:29;12.60;99.90
8541;DHT22;4308;51.294;6.590;2024-02-14T17:23:57;12.60;99.90
8541;DHT22;4308;51.294;6.590;2024-02-14T17:26:24;12.60;99.90
8541;DHT22;4308;51.294;6.590;2024-02-14T17:28:51;12.60;99.90
8541;DHT22;4308;51.294;6.590;2024-02-14T17:31:18;12.60;99.90
8541;DHT22;4308;51.294;6.590;2024-02-14T17:33:46;12.60;99.90
8541;DHT22;4308;51.294;6.590;2024-02-14T17:36:14;12.60;99.90
8541;DHT22;4308;51.294;6.590;2024-02-14T17:38:41;12.60;99.90
8541;DHT22;4308;51.294;6.590;2024-02-14T17:41:09;12.60;99.90
8541;DHT22;4308;51.294;6.590;2024-02-14T17:43:36;12.60;99.90
8541;DHT22;4308;51.294;6.590;2024-02-14T17:46:04;12.60;99.90
8541;DHT22;4308;51.294;6.590;2024-02-14T17:48:31;12.60;99.90
8541;DHT22;4308;51.294;6.590;2024-02-14T17:50:59;12.60;99.90
8541;DHT22;4308;51.294;6.590;2024-02-14T17:53:26;12.70;99.90
8541;DHT22;4308;51.294;6.590;2024-02-14T17:55:54;12.60;99.90
8541;DHT22;4308;51.294;6.590;2024-02-14T17:58:21;12.60;99.90
8541;DHT22;4308;51.294;6.590;2024-02-14T18:00:48;12.60;99.90
8541;DHT22;4308;51.294;6.590;2024-02-14T18:03:16;12.60;99.90
8541;DHT22;4308;51.294;6.590;2024-02-14T18:05:43;12.70;99.90
8541;DHT22;4308;51.294;6.590;2024-02-14T18:08:11;12.60;99.90
8541;DHT22;4308;51.294;6.590;2024-02-14T18:10:38;12.60;99.90
8541;DHT22;4308;51.294;6.590;2024-02-14T18:13:06;12.70;99.90
8541;DHT22;4308;51.294;6.590;2024-02-14T18:15:33;12.60;99.90
8541;DHT22;4308;51.294;6.590;2024-02-14T18:18:00;12.60;99.90
8541;DHT22;4308;51.294;6.590;2024-02-14T18:20:28;12.60;99.90
8541;DHT22;4308;51.294;6.590;2024-02-14T18:22:55;12.60;99.90
8541;DHT22;4308;51.294;6.590;2024-02-14T18:25:23;12.60;99.90
8541;DHT22;4308;51.294;6.590;2024-02-14T18:27:50;12.60;99.90
8541;DHT22;4308;51.294;6.590;2024-02-14T18:30:18;12.70;99.90
8541;DHT22;4308;51.294;6.590;2024-02-14T18:32:46;12.70;99.90
8541;DHT22;4308;51.294;6.590;2024-02-14T18:35:14;12.70;99.90
8541;DHT22;4308;51.294;6.590;2024-02-14T18:37:41;12.70;99.90
8541;DHT22;4308;51.294;6.590;2024-02-14T18:40:08;12.80;99.90
8541;DHT22;4308;51.294;6.590;2024-02-14T18:42:36;12.80;99.90
8541;DHT22;4308;51.294;6.590;2024-02-14T18:45:05;12.70;99.90
8541;DHT22;4308;51.294;6.590;2024-02-14T18:47:32;12.70;99.90
8541;DHT22;4308;51.294;6.590;2024-02-14T18:50:00;12.70;99.90
8541;DHT22;4308;51.294;6.590;2024-02-14T18:52:27;12.80;99.90
8541;DHT22;4308;51.294;6.590;2024-02-14T18:54:54;12.70;99.90
8541;DHT22;4308;51.294;6.590;2024-02-14T18:57:22;12.80;99.90
8541;DHT22;4308;51.294;6.590;2024-02-14T18:59:49;12.80;99.90
8541;DHT22;4308;51.294;6.590;2024-02-14T19:02:17;12.80;99.90
8541;DHT22;4308;51.294;6.590;2024-02-14T19:04:44;12.80;99.90
8541;DHT22;4308;51.294;6.590;2024-02-14T19:07:11;12.80;99.90
8541;DHT22;4308;51.294;6.590;2024-02-14T19:09:39;12.80;99.90
8541;DHT22;4308;51.294;6.590;2024-02-14T19:12:06;12.80;99.90
8541;DHT22;4308;51.294;6.590;2024-02-14T19:14:35;12.80;99.90
8541;DHT22;4308;51.294;6.590;2024-02-14T19:17:02;12.80;99.90
8541;DHT22;4308;51.294;6.590;2024-02-14T19:19:29;12.80;99.90
8541;DHT22;4308;51.294;6.590;2024-02-14T19:21:57;12.80;99.90
8541;DHT22;4308;51.294;6.590;2024-02-14T19:24:24;12.80;99.90
8541;DHT22;4308;51.294;6.590;2024-02-14T19:26:52;12.80;99.90
8541;DHT22;4308;51.294;6.590;2024-02-14T19:29:19;12.80;99.90
8541;DHT22;4308;51.294;6.590;2024-02-14T19:31:46;12.80;99.90
8541;DHT22;4308;51.294;6.590;2024-02-14T19:34:14;12.80;99.90
8541;DHT22;4308;51.294;6.590;2024-02-14T19:36:41;12.80;99.90
8541;DHT22;4308;51.294;6.590;2024-02-14T19:39:09;12.80;99.90
8541;DHT22;4308;51.294;6.590;2024-02-14T19:41:36;12.80;99.90
8541;DHT22;4308;51.294;6.590;2024-02-14T19:44:04;12.80;99.90
8541;DHT22;4308;51.294;6.590;2024-02-14T19:46:31;12.80;99.90
8541;DHT22;4308;51.294;6.590;2024-02-14T19:48:58;12.80;99.90
8541;DHT22;4308;51.294;6.590;2024-02-14T19:51:27;12.70;99.90
8541;DHT22;4308;51.294;6.590;2024-02-14T19:53:55;12.70;99.90
8541;DHT22;4308;51.294;6.590;2024-02-14T19:56:22;12.70;99.90
8541;DHT22;4308;51.294;6.590;2024-02-14T19:58:49;12.70;99.90
8541;DHT22;4308;51.294;6.590;2024-02-14T20:01:17;12.70;99.90
8541;DHT22;4308;51.294;6.590;2024-02-14T20:03:44;12.70;99.90
8541;DHT22;4308;51.294;6.590;2024-02-14T20:06:12;12.70;99.90
8541;DHT22;4308;51.294;6.590;2024-02-14T20:08:40;12.70;99.90
8541;DHT22;4308;51.294;6.590;2024-02-14T20:11:08;12.60;99.90
8541;DHT22;4308;51.294;6.590;2024-02-14T20:13:35;12.60;99.90
8541;DHT22;4308;51.294;6.590;2024-02-14T20:16:03;12.60;99.90
8541;DHT22;4308;51.294;6.590;2024-02-14T20:18:30;12.60;99.90
8541;DHT22;4308;51.294;6.590;2024-02-14T20:20:58;12.50;99.90
8541;DHT22;4308;51.294;6.590;2024-02-14T20:23:26;12.50;99.90
8541;DHT22;4308;51.294;6.590;2024-02-14T20:25:53;12.50;99.90
8541;DHT22;4308;51.294;6.590;2024-02-14T20:28:23;12.50;99.90
8541;DHT22;4308;51.294;6.590;2024-02-14T20:30:53;12.50;99.90
8541;DHT22;4308;51.294;6.590;2024-02-14T20:33:21;12.60;99.90
8541;DHT22;4308;51.294;6.590;2024-02-14T20:35:49;12.60;99.90
8541;DHT22;4308;51.294;6.590;2024-02-14T20:38:16;12.60;99.90
8541;DHT22;4308;51.294;6.590;2024-02-14T20:40:44;12.60;99.90
8541;DHT22;4308;51.294;6.590;2024-02-14T20:43:11;12.60;99.90
8541;DHT22;4308;51.294;6.590;2024-02-14T20:45:38;12.60;99.90
8541;DHT22;4308;51.294;6.590;2024-02-14T20:48:06;12.60;99.90
8541;DHT22;4308;51.294;6.590;2024-02-14T20:50:33;12.60;99.90
8541;DHT22;4308;51.294;6.590;2024-02-14T20:53:01;12.60;99.90
8541;DHT22;4308;51.294;6.590;2024-02-14T20:55:28;12.60;99.90
8541;DHT22;4308;51.294;6.590;2024-02-14T20:58:00;12.60;99.90
8541;DHT22;4308;51.294;6.590;2024-02-14T21:00:27;12.60;99.90
8541;DHT22;4308;51.294;6.590;2024-02-14T21:02:57;12.60;99.90
8541;DHT22;4308;51.294;6.590;2024-02-14T21:05:25;12.60;99.90
8541;DHT22;4308;51.294;6.590;2024-02-14T21:07:52;12.60;99.90
8541;DHT22;4308;51.294;6.590;2024-02-14T21:10:19;12.60;99.90
8541;DHT22;4308;51.294;6.590;2024-02-14T21:12:47;12.60;99.90
8541;DHT22;4308;51.294;6.590;2024-02-14T21:15:14;12.60;99.90
8541;DHT22;4308;51.294;6.590;2024-02-14T21:17:42;12.70;99.90
8541;DHT22;4308;51.294;6.590;2024-02-14T21:20:10;12.70;99.90
8541;DHT22;4308;51.294;6.590;2024-02-14T21:22:37;12.70;99.90
8541;DHT22;4308;51.294;6.590;2024-02-14T21:25:05;12.60;99.90
8541;DHT22;4308;51.294;6.590;2024-02-14T21:27:32;12.70;99.90
8541;DHT22;4308;51.294;6.590;2024-02-14T21:30:00;12.70;99.90
8541;DHT22;4308;51.294;6.590;2024-02-14T21:32:27;12.70;99.90
8541;DHT22;4308;51.294;6.590;2024-02-14T21:34:55;12.70;99.90
8541;DHT22;4308;51.294;6.590;2024-02-14T21:37:22;12.70;99.90
8541;DHT22;4308;51.294;6.590;2024-02-14T21:39:49;12.70;99.90
8541;DHT22;4308;51.294;6.590;2024-02-14T21:42:17;12.70;99.90
8541;DHT22;4308;51.294;6.590;2024-02-14T21:44:44;12.70;99.90
8541;DHT22;4308;51.294;6.590;2024-02-14T21:47:11;12.70;99.90
8541;DHT22;4308;51.294;6.590;2024-02-14T21:49:39;12.70;99.90
8541;DHT22;4308;51.294;6.590;2024-02-14T21:52:06;12.70;99.90
8541;DHT22;4308;51.294;6.590;2024-02-14T21:54:34;12.70;99.90
8541;DHT22;4308;51.294;6.590;2024-02-14T21:57:01;12.70;99.90
8541;DHT22;4308;51.294;6.590;2024-02-14T21:59:29;12.80;99.90
8541;DHT22;4308;51.294;6.590;2024-02-14T22:01:56;12.80;99.90
8541;DHT22;4308;51.294;6.590;2024-02-14T22:04:24;12.70;99.90
8541;DHT22;4308;51.294;6.590;2024-02-14T22:06:51;12.80;99.90
8541;DHT22;4308;51.294;6.590;2024-02-14T22:09:18;12.80;99.90
8541;DHT22;4308;51.294;6.590;2024-02-14T22:11:46;12.80;99.90
8541;DHT22;4308;51.294;6.590;2024-02-14T22:14:13;12.80;99.90
8541;DHT22;4308;51.294;6.590;2024-02-14T22:16:41;12.90;99.90
8541;DHT22;4308;51.294;6.590;2024-02-14T22:19:08;12.80;99.90
8541;DHT22;4308;51.294;6.590;2024-02-14T22:21:36;12.80;99.90
8541;DHT22;4308;51.294;6.590;2024-02-14T22:24:03;12.90;99.90
8541;DHT22;4308;51.294;6.590;2024-02-14T22:26:31;12.90;99.90
8541;DHT22;4308;51.294;6.590;2024-02-14T22:28:59;12.80;99.90
8541;DHT22;4308;51.294;6.590;2024-02-14T22:31:26;12.90;99.90
8541;DHT22;4308;51.294;6.590;2024-02-14T22:33:53;12.90;99.90
8541;DHT22;4308;51.294;6.590;2024-02-14T22:36:21;12.90;99.90
8541;DHT22;4308;51.294;6.590;2024-02-14T22:38:48;12.90;99.90
8541;DHT22;4308;51.294;6.590;2024-02-14T22:41:16;12.90;99.90
8541;DHT22;4308;51.294;6.590;2024-02-14T22:43:43;12.90;99.90
8541;DHT22;4308;51.294;6.590;2024-02-14T22:46:11;12.90;99.90
8541;DHT22;4308;51.294;6.590;2024-02-14T22:48:39;12.90;99.90
8541;DHT22;4308;51.294;6.590;2024-02-14T22:51:06;12.90;99.90
8541;DHT22;4308;51.294;6.590;2024-02-14T22:53:33;12.90;99.90
8541;DHT22;4308;51.294;6.590;2024-02-14T22:56:01;12.90;99.90
8541;DHT22;4308;51.294;6.590;2024-02-14T22:58:28;12.90;99.90
8541;DHT22;4308;51.294;6.590;2024-02-14T23:00:55;12.90;99.90
8541;DHT22;4308;51.294;6.590;2024-02-14T23:03:23;12.90;99.90
8541;DHT22;4308;51.294;6.590;2024-02-14T23:05:50;12.90;99.90
8541;DHT22;4308;51.294;6.590;2024-02-14T23:08:18;12.80;99.90